sensor_id;sensor_type;location;lat;lon;timestamp;P1;durP1;ratioP1;P2;durP2;ratioP2
49590;SDS011;35496;-21.974;-46.800;2023-05-07T00:01:46;10.63;;;5.13;;
49590;SDS011;35496;-21.974;-46.800;2023-05-07T00:04:12;5.40;;;4.75;;
49590;SDS011;35496;-21.974;-46.800;2023-05-07T00:06:38;5.35;;;4.63;;
49590;SDS011;35496;-21.974;-46.800;2023-05-07T00:09:05;6.70;;;4.70;;
49590;SDS011;35496;-21.974;-46.800;2023-05-07T00:11:31;6.97;;;4.47;;
49590;SDS011;35496;-21.974;-46.800;2023-05-07T00:13:58;12.27;;;6.32;;
49590;SDS011;35496;-21.974;-46.800;2023-05-07T00:16:24;10.95;;;5.90;;
49590;SDS011;35496;-21.974;-46.800;2023-05-07T00:18:52;6.95;;;5.32;;
49590;SDS011;35496;-21.974;-46.800;2023-05-07T00:21:18;11.57;;;4.20;;
49590;SDS011;35496;-21.974;-46.800;2023-05-07T00:23:44;8.68;;;5.07;;
49590;SDS011;35496;-21.974;-46.800;2023-05-07T00:26:10;8.50;;;4.95;;
49590;SDS011;35496;-21.974;-46.800;2023-05-07T00:28:36;5.30;;;4.18;;
49590;SDS011;35496;-21.974;-46.800;2023-05-07T00:31:02;9.23;;;5.55;;
49590;SDS011;35496;-21.974;-46.800;2023-05-07T00:33:28;6.90;;;4.22;;
49590;SDS011;35496;-21.974;-46.800;2023-05-07T00:35:54;7.97;;;5.10;;
49590;SDS011;35496;-21.974;-46.800;2023-05-07T00:38:20;5.80;;;4.90;;
49590;SDS011;35496;-21.974;-46.800;2023-05-07T00:40:46;7.45;;;4.85;;
49590;SDS011;35496;-21.974;-46.800;2023-05-07T00:43:13;5.78;;;4.95;;
49590;SDS011;35496;-21.974;-46.800;2023-05-07T00:45:39;7.60;;;4.47;;
49590;SDS011;35496;-21.974;-46.800;2023-05-07T00:48:05;5.75;;;4.40;;
49590;SDS011;35496;-21.974;-46.800;2023-05-07T00:50:31;4.47;;;4.10;;
49590;SDS011;35496;-21.974;-46.800;2023-05-07T00:52:58;5.60;;;4.28;;
49590;SDS011;35496;-21.974;-46.800;2023-05-07T00:55:24;6.22;;;4.70;;
49590;SDS011;35496;-21.974;-46.800;2023-05-07T00:57:50;6.25;;;5.65;;
49590;SDS011;35496;-21.974;-46.800;2023-05-07T01:00:16;9.52;;;4.65;;
49590;SDS011;35496;-21.974;-46.800;2023-05-07T01:02:43;9.38;;;4.78;;
49590;SDS011;35496;-21.974;-46.800;2023-05-07T01:05:10;7.78;;;4.50;;
49590;SDS011;35496;-21.974;-46.800;2023-05-07T01:07:38;6.75;;;4.32;;
49590;SDS011;35496;-21.974;-46.800;2023-05-07T01:10:06;8.00;;;4.90;;
49590;SDS011;35496;-21.974;-46.800;2023-05-07T01:12:32;5.07;;;4.57;;
49590;SDS011;35496;-21.974;-46.800;2023-05-07T01:14:59;6.53;;;5.03;;
49590;SDS011;35496;-21.974;-46.800;2023-05-07T01:17:25;6.65;;;5.70;;
49590;SDS011;35496;-21.974;-46.800;2023-05-07T01:19:51;9.20;;;5.60;;
49590;SDS011;35496;-21.974;-46.800;2023-05-07T01:22:39;11.35;;;7.43;;
49590;SDS011;35496;-21.974;-46.800;2023-05-07T01:25:04;10.57;;;5.90;;
49590;SDS011;35496;-21.974;-46.800;2023-05-07T01:27:31;7.95;;;5.20;;
49590;SDS011;35496;-21.974;-46.800;2023-05-07T01:29:59;7.65;;;5.63;;
49590;SDS011;35496;-21.974;-46.800;2023-05-07T01:32:32;12.80;;;6.35;;
49590;SDS011;35496;-21.974;-46.800;2023-05-07T01:34:59;6.97;;;5.55;;
49590;SDS011;35496;-21.974;-46.800;2023-05-07T01:37:26;6.03;;;5.18;;
49590;SDS011;35496;-21.974;-46.800;2023-05-07T01:39:53;5.68;;;5.05;;
49590;SDS011;35496;-21.974;-46.800;2023-05-07T01:42:19;5.70;;;4.95;;
49590;SDS011;35496;-21.974;-46.800;2023-05-07T01:44:45;8.60;;;4.85;;
49590;SDS011;35496;-21.974;-46.800;2023-05-07T01:47:12;5.75;;;4.85;;
49590;SDS011;35496;-21.974;-46.800;2023-05-07T01:49:38;6.10;;;5.38;;
49590;SDS011;35496;-21.974;-46.800;2023-05-07T01:52:04;7.45;;;4.85;;
49590;SDS011;35496;-21.974;-46.800;2023-05-07T01:54:31;7.72;;;5.50;;
49590;SDS011;35496;-21.974;-46.800;2023-05-07T01:56:57;9.35;;;5.85;;
49590;SDS011;35496;-21.974;-46.800;2023-05-07T01:59:23;6.35;;;4.32;;
49590;SDS011;35496;-21.974;-46.800;2023-05-07T02:01:49;6.43;;;4.45;;
49590;SDS011;35496;-21.974;-46.800;2023-05-07T02:04:15;7.72;;;5.32;;
49590;SDS011;35496;-21.974;-46.800;2023-05-07T02:06:41;6.18;;;5.32;;
49590;SDS011;35496;-21.974;-46.800;2023-05-07T02:09:07;9.70;;;5.47;;
49590;SDS011;35496;-21.974;-46.800;2023-05-07T02:11:34;4.68;;;4.22;;
49590;SDS011;35496;-21.974;-46.800;2023-05-07T02:14:00;7.20;;;4.60;;
49590;SDS011;35496;-21.974;-46.800;2023-05-07T02:16:26;8.55;;;5.30;;
49590;SDS011;35496;-21.974;-46.800;2023-05-07T02:18:52;8.73;;;4.88;;
49590;SDS011;35496;-21.974;-46.800;2023-05-07T02:21:18;6.15;;;5.55;;
49590;SDS011;35496;-21.974;-46.800;2023-05-07T02:23:44;8.10;;;5.70;;
49590;SDS011;35496;-21.974;-46.800;2023-05-07T02:26:11;7.50;;;5.20;;
49590;SDS011;35496;-21.974;-46.800;2023-05-07T02:28:37;8.50;;;4.93;;
49590;SDS011;35496;-21.974;-46.800;2023-05-07T02:31:03;9.00;;;5.35;;
49590;SDS011;35496;-21.974;-46.800;2023-05-07T02:33:29;10.10;;;5.28;;
49590;SDS011;35496;-21.974;-46.800;2023-05-07T02:35:56;7.07;;;5.28;;
49590;SDS011;35496;-21.974;-46.800;2023-05-07T02:38:22;12.38;;;6.10;;
49590;SDS011;35496;-21.974;-46.800;2023-05-07T02:40:48;6.85;;;5.28;;
49590;SDS011;35496;-21.974;-46.800;2023-05-07T02:43:14;7.50;;;5.63;;
49590;SDS011;35496;-21.974;-46.800;2023-05-07T02:45:40;7.28;;;5.32;;
49590;SDS011;35496;-21.974;-46.800;2023-05-07T02:48:06;7.75;;;4.30;;
49590;SDS011;35496;-21.974;-46.800;2023-05-07T02:50:32;7.72;;;4.80;;
49590;SDS011;35496;-21.974;-46.800;2023-05-07T02:52:58;8.50;;;5.95;;
49590;SDS011;35496;-21.974;-46.800;2023-05-07T02:55:24;8.32;;;6.20;;
49590;SDS011;35496;-21.974;-46.800;2023-05-07T02:57:51;5.85;;;4.70;;
49590;SDS011;35496;-21.974;-46.800;2023-05-07T03:00:17;6.15;;;5.55;;
49590;SDS011;35496;-21.974;-46.800;2023-05-07T03:02:44;7.30;;;4.65;;
49590;SDS011;35496;-21.974;-46.800;2023-05-07T03:05:10;10.07;;;5.07;;
49590;SDS011;35496;-21.974;-46.800;2023-05-07T03:07:37;7.30;;;5.53;;
49590;SDS011;35496;-21.974;-46.800;2023-05-07T03:10:04;8.43;;;5.30;;
49590;SDS011;35496;-21.974;-46.800;2023-05-07T03:12:30;6.63;;;4.90;;
49590;SDS011;35496;-21.974;-46.800;2023-05-07T03:14:56;7.43;;;5.60;;
49590;SDS011;35496;-21.974;-46.800;2023-05-07T03:17:22;5.65;;;5.05;;
49590;SDS011;35496;-21.974;-46.800;2023-05-07T03:19:48;10.10;;;6.57;;
49590;SDS011;35496;-21.974;-46.800;2023-05-07T03:22:15;10.88;;;6.95;;
49590;SDS011;35496;-21.974;-46.800;2023-05-07T03:24:41;7.22;;;6.53;;
49590;SDS011;35496;-21.974;-46.800;2023-05-07T03:27:07;10.98;;;8.30;;
49590;SDS011;35496;-21.974;-46.800;2023-05-07T03:29:33;8.45;;;7.07;;
49590;SDS011;35496;-21.974;-46.800;2023-05-07T03:31:59;8.77;;;7.63;;
49590;SDS011;35496;-21.974;-46.800;2023-05-07T03:34:26;11.35;;;8.15;;
49590;SDS011;35496;-21.974;-46.800;2023-05-07T03:36:52;11.02;;;6.03;;
49590;SDS011;35496;-21.974;-46.800;2023-05-07T03:39:18;10.70;;;7.03;;
49590;SDS011;35496;-21.974;-46.800;2023-05-07T03:41:44;13.98;;;6.50;;
49590;SDS011;35496;-21.974;-46.800;2023-05-07T03:44:10;5.70;;;5.20;;
49590;SDS011;35496;-21.974;-46.800;2023-05-07T03:46:37;14.38;;;7.00;;
49590;SDS011;35496;-21.974;-46.800;2023-05-07T03:49:03;20.55;;;7.28;;
49590;SDS011;35496;-21.974;-46.800;2023-05-07T03:51:29;6.18;;;5.03;;
49590;SDS011;35496;-21.974;-46.800;2023-05-07T03:53:55;7.05;;;5.65;;
49590;SDS011;35496;-21.974;-46.800;2023-05-07T03:56:22;10.23;;;6.50;;
49590;SDS011;35496;-21.974;-46.800;2023-05-07T03:58:52;7.45;;;6.18;;
49590;SDS011;35496;-21.974;-46.800;2023-05-07T04:01:18;11.65;;;6.10;;
49590;SDS011;35496;-21.974;-46.800;2023-05-07T04:03:44;9.60;;;6.75;;
49590;SDS011;35496;-21.974;-46.800;2023-05-07T04:06:10;11.23;;;6.47;;
49590;SDS011;35496;-21.974;-46.800;2023-05-07T04:08:36;11.38;;;6.00;;
49590;SDS011;35496;-21.974;-46.800;2023-05-07T04:11:02;10.05;;;6.20;;
49590;SDS011;35496;-21.974;-46.800;2023-05-07T04:13:29;7.00;;;5.90;;
49590;SDS011;35496;-21.974;-46.800;2023-05-07T04:15:55;12.88;;;7.60;;
49590;SDS011;35496;-21.974;-46.800;2023-05-07T04:18:21;11.18;;;6.18;;
49590;SDS011;35496;-21.974;-46.800;2023-05-07T04:20:48;11.35;;;6.88;;
49590;SDS011;35496;-21.974;-46.800;2023-05-07T04:23:16;12.93;;;7.05;;
49590;SDS011;35496;-21.974;-46.800;2023-05-07T04:25:42;12.15;;;7.65;;
49590;SDS011;35496;-21.974;-46.800;2023-05-07T04:28:08;8.57;;;5.30;;
49590;SDS011;35496;-21.974;-46.800;2023-05-07T04:30:34;12.77;;;6.53;;
49590;SDS011;35496;-21.974;-46.800;2023-05-07T04:33:01;9.40;;;7.15;;
49590;SDS011;35496;-21.974;-46.800;2023-05-07T04:35:27;18.00;;;9.05;;
49590;SDS011;35496;-21.974;-46.800;2023-05-07T04:37:53;14.65;;;7.53;;
49590;SDS011;35496;-21.974;-46.800;2023-05-07T04:40:19;14.57;;;7.85;;
49590;SDS011;35496;-21.974;-46.800;2023-05-07T04:42:45;10.57;;;6.30;;
49590;SDS011;35496;-21.974;-46.800;2023-05-07T04:45:11;9.20;;;7.10;;
49590;SDS011;35496;-21.974;-46.800;2023-05-07T04:47:38;8.20;;;6.97;;
49590;SDS011;35496;-21.974;-46.800;2023-05-07T04:50:04;8.35;;;6.50;;
49590;SDS011;35496;-21.974;-46.800;2023-05-07T04:52:31;7.05;;;6.15;;
49590;SDS011;35496;-21.974;-46.800;2023-05-07T04:54:58;10.75;;;6.82;;
49590;SDS011;35496;-21.974;-46.800;2023-05-07T04:57:25;16.63;;;7.65;;
49590;SDS011;35496;-21.974;-46.800;2023-05-07T04:59:52;10.30;;;6.15;;
49590;SDS011;35496;-21.974;-46.800;2023-05-07T05:02:18;6.45;;;5.32;;
49590;SDS011;35496;-21.974;-46.800;2023-05-07T05:04:44;9.75;;;6.20;;
49590;SDS011;35496;-21.974;-46.800;2023-05-07T05:07:10;12.32;;;6.55;;
49590;SDS011;35496;-21.974;-46.800;2023-05-07T05:09:36;11.32;;;6.85;;
49590;SDS011;35496;-21.974;-46.800;2023-05-07T05:12:02;7.53;;;6.40;;
49590;SDS011;35496;-21.974;-46.800;2023-05-07T05:14:28;9.18;;;5.97;;
49590;SDS011;35496;-21.974;-46.800;2023-05-07T05:16:55;12.32;;;6.65;;
49590;SDS011;35496;-21.974;-46.800;2023-05-07T05:19:21;12.50;;;5.75;;
49590;SDS011;35496;-21.974;-46.800;2023-05-07T05:21:47;10.52;;;6.38;;
49590;SDS011;35496;-21.974;-46.800;2023-05-07T05:24:13;9.48;;;5.32;;
49590;SDS011;35496;-21.974;-46.800;2023-05-07T05:26:39;8.18;;;6.63;;
49590;SDS011;35496;-21.974;-46.800;2023-05-07T05:29:05;9.75;;;4.72;;
49590;SDS011;35496;-21.974;-46.800;2023-05-07T05:31:31;10.60;;;4.90;;
49590;SDS011;35496;-21.974;-46.800;2023-05-07T05:33:58;7.85;;;5.25;;
49590;SDS011;35496;-21.974;-46.800;2023-05-07T05:36:24;8.18;;;5.05;;
49590;SDS011;35496;-21.974;-46.800;2023-05-07T05:38:51;8.85;;;5.07;;
49590;SDS011;35496;-21.974;-46.800;2023-05-07T05:41:17;6.03;;;4.90;;
49590;SDS011;35496;-21.974;-46.800;2023-05-07T05:43:43;9.75;;;5.38;;
49590;SDS011;35496;-21.974;-46.800;2023-05-07T05:46:09;9.80;;;5.05;;
49590;SDS011;35496;-21.974;-46.800;2023-05-07T05:48:37;8.45;;;4.80;;
49590;SDS011;35496;-21.974;-46.800;2023-05-07T05:51:03;11.43;;;5.38;;
49590;SDS011;35496;-21.974;-46.800;2023-05-07T05:53:29;5.55;;;4.40;;
49590;SDS011;35496;-21.974;-46.800;2023-05-07T05:55:55;7.40;;;4.28;;
49590;SDS011;35496;-21.974;-46.800;2023-05-07T05:58:21;6.20;;;4.30;;
49590;SDS011;35496;-21.974;-46.800;2023-05-07T06:00:47;5.65;;;4.13;;
49590;SDS011;35496;-21.974;-46.800;2023-05-07T06:03:13;6.05;;;4.07;;
49590;SDS011;35496;-21.974;-46.800;2023-05-07T06:05:40;5.88;;;3.85;;
49590;SDS011;35496;-21.974;-46.800;2023-05-07T06:08:06;4.90;;;4.45;;
49590;SDS011;35496;-21.974;-46.800;2023-05-07T06:10:32;6.13;;;4.45;;
49590;SDS011;35496;-21.974;-46.800;2023-05-07T06:12:58;6.30;;;4.53;;
49590;SDS011;35496;-21.974;-46.800;2023-05-07T06:15:24;4.70;;;4.28;;
49590;SDS011;35496;-21.974;-46.800;2023-05-07T06:17:50;7.10;;;4.30;;
49590;SDS011;35496;-21.974;-46.800;2023-05-07T06:20:16;7.63;;;4.03;;
49590;SDS011;35496;-21.974;-46.800;2023-05-07T06:22:42;7.35;;;4.45;;
49590;SDS011;35496;-21.974;-46.800;2023-05-07T06:25:08;4.18;;;3.70;;
49590;SDS011;35496;-21.974;-46.800;2023-05-07T06:27:34;5.18;;;4.32;;
49590;SDS011;35496;-21.974;-46.800;2023-05-07T06:30:00;4.75;;;3.53;;
49590;SDS011;35496;-21.974;-46.800;2023-05-07T06:32:27;7.60;;;4.22;;
49590;SDS011;35496;-21.974;-46.800;2023-05-07T06:34:53;6.18;;;4.57;;
49590;SDS011;35496;-21.974;-46.800;2023-05-07T06:37:19;5.40;;;4.38;;
49590;SDS011;35496;-21.974;-46.800;2023-05-07T06:39:45;5.50;;;3.92;;
49590;SDS011;35496;-21.974;-46.800;2023-05-07T06:42:11;18.75;;;4.45;;
49590;SDS011;35496;-21.974;-46.800;2023-05-07T06:44:37;4.53;;;4.07;;
49590;SDS011;35496;-21.974;-46.800;2023-05-07T06:47:03;5.88;;;4.57;;
49590;SDS011;35496;-21.974;-46.800;2023-05-07T06:49:30;5.68;;;4.10;;
49590;SDS011;35496;-21.974;-46.800;2023-05-07T06:51:56;5.72;;;3.88;;
49590;SDS011;35496;-21.974;-46.800;2023-05-07T06:54:22;6.45;;;4.38;;
49590;SDS011;35496;-21.974;-46.800;2023-05-07T06:56:49;7.70;;;4.75;;
49590;SDS011;35496;-21.974;-46.800;2023-05-07T06:59:15;5.20;;;4.15;;
49590;SDS011;35496;-21.974;-46.800;2023-05-07T07:01:41;4.93;;;3.97;;
49590;SDS011;35496;-21.974;-46.800;2023-05-07T07:04:07;5.15;;;4.43;;
49590;SDS011;35496;-21.974;-46.800;2023-05-07T07:06:33;4.97;;;4.57;;
49590;SDS011;35496;-21.974;-46.800;2023-05-07T07:08:59;4.57;;;3.75;;
49590;SDS011;35496;-21.974;-46.800;2023-05-07T07:11:25;6.28;;;4.93;;
49590;SDS011;35496;-21.974;-46.800;2023-05-07T07:13:51;6.03;;;4.68;;
49590;SDS011;35496;-21.974;-46.800;2023-05-07T07:16:20;4.43;;;4.03;;
49590;SDS011;35496;-21.974;-46.800;2023-05-07T07:18:46;4.88;;;4.45;;
49590;SDS011;35496;-21.974;-46.800;2023-05-07T07:21:12;4.80;;;4.28;;
49590;SDS011;35496;-21.974;-46.800;2023-05-07T07:23:38;7.00;;;5.05;;
49590;SDS011;35496;-21.974;-46.800;2023-05-07T07:26:04;6.45;;;4.63;;
49590;SDS011;35496;-21.974;-46.800;2023-05-07T07:28:31;8.13;;;4.78;;
49590;SDS011;35496;-21.974;-46.800;2023-05-07T07:30:57;5.20;;;4.32;;
49590;SDS011;35496;-21.974;-46.800;2023-05-07T07:33:23;5.40;;;4.28;;
49590;SDS011;35496;-21.974;-46.800;2023-05-07T07:35:49;6.20;;;4.93;;
49590;SDS011;35496;-21.974;-46.800;2023-05-07T07:38:15;8.45;;;5.03;;
49590;SDS011;35496;-21.974;-46.800;2023-05-07T07:40:41;8.07;;;4.47;;
49590;SDS011;35496;-21.974;-46.800;2023-05-07T07:43:09;9.57;;;4.82;;
49590;SDS011;35496;-21.974;-46.800;2023-05-07T07:45:35;5.07;;;4.57;;
49590;SDS011;35496;-21.974;-46.800;2023-05-07T07:48:01;5.82;;;4.68;;
49590;SDS011;35496;-21.974;-46.800;2023-05-07T07:50:27;6.97;;;4.68;;
49590;SDS011;35496;-21.974;-46.800;2023-05-07T07:52:53;6.05;;;5.25;;
49590;SDS011;35496;-21.974;-46.800;2023-05-07T07:55:19;8.40;;;5.57;;
49590;SDS011;35496;-21.974;-46.800;2023-05-07T07:57:48;5.40;;;4.90;;
49590;SDS011;35496;-21.974;-46.800;2023-05-07T08:00:15;11.40;;;5.38;;
49590;SDS011;35496;-21.974;-46.800;2023-05-07T08:02:41;8.30;;;5.32;;
49590;SDS011;35496;-21.974;-46.800;2023-05-07T08:05:08;5.30;;;4.72;;
49590;SDS011;35496;-21.974;-46.800;2023-05-07T08:07:34;4.80;;;4.38;;
49590;SDS011;35496;-21.974;-46.800;2023-05-07T08:10:00;6.05;;;4.63;;
49590;SDS011;35496;-21.974;-46.800;2023-05-07T08:12:26;5.28;;;4.82;;
49590;SDS011;35496;-21.974;-46.800;2023-05-07T08:14:52;6.75;;;5.32;;
49590;SDS011;35496;-21.974;-46.800;2023-05-07T08:17:18;5.28;;;4.63;;
49590;SDS011;35496;-21.974;-46.800;2023-05-07T08:19:44;6.03;;;5.43;;
49590;SDS011;35496;-21.974;-46.800;2023-05-07T08:22:10;6.38;;;4.72;;
49590;SDS011;35496;-21.974;-46.800;2023-05-07T08:24:36;7.05;;;4.57;;
49590;SDS011;35496;-21.974;-46.800;2023-05-07T08:27:02;6.28;;;4.80;;
49590;SDS011;35496;-21.974;-46.800;2023-05-07T08:29:28;4.82;;;4.22;;
49590;SDS011;35496;-21.974;-46.800;2023-05-07T08:31:54;4.75;;;4.10;;
49590;SDS011;35496;-21.974;-46.800;2023-05-07T08:34:21;6.32;;;5.35;;
49590;SDS011;35496;-21.974;-46.800;2023-05-07T08:36:47;5.40;;;3.90;;
49590;SDS011;35496;-21.974;-46.800;2023-05-07T08:39:15;5.97;;;3.80;;
49590;SDS011;35496;-21.974;-46.800;2023-05-07T08:41:44;6.00;;;5.47;;
49590;SDS011;35496;-21.974;-46.800;2023-05-07T08:44:14;5.72;;;5.05;;
49590;SDS011;35496;-21.974;-46.800;2023-05-07T08:46:40;8.90;;;4.28;;
49590;SDS011;35496;-21.974;-46.800;2023-05-07T08:49:07;8.70;;;5.43;;
49590;SDS011;35496;-21.974;-46.800;2023-05-07T08:51:33;8.43;;;5.25;;
49590;SDS011;35496;-21.974;-46.800;2023-05-07T08:53:59;6.53;;;4.65;;
49590;SDS011;35496;-21.974;-46.800;2023-05-07T08:56:27;5.35;;;3.80;;
49590;SDS011;35496;-21.974;-46.800;2023-05-07T08:58:53;4.72;;;4.18;;
49590;SDS011;35496;-21.974;-46.800;2023-05-07T09:01:23;7.22;;;4.25;;
49590;SDS011;35496;-21.974;-46.800;2023-05-07T09:03:50;5.47;;;4.97;;
49590;SDS011;35496;-21.974;-46.800;2023-05-07T09:06:17;5.93;;;4.93;;
49590;SDS011;35496;-21.974;-46.800;2023-05-07T09:08:52;6.90;;;4.53;;
49590;SDS011;35496;-21.974;-46.800;2023-05-07T09:11:22;7.40;;;5.43;;
49590;SDS011;35496;-21.974;-46.800;2023-05-07T09:13:49;5.90;;;4.70;;
49590;SDS011;35496;-21.974;-46.800;2023-05-07T09:16:19;7.68;;;5.15;;
49590;SDS011;35496;-21.974;-46.800;2023-05-07T09:18:46;5.80;;;5.13;;
49590;SDS011;35496;-21.974;-46.800;2023-05-07T09:21:16;4.82;;;4.43;;
49590;SDS011;35496;-21.974;-46.800;2023-05-07T09:23:42;5.38;;;4.88;;
49590;SDS011;35496;-21.974;-46.800;2023-05-07T09:26:08;7.18;;;5.15;;
49590;SDS011;35496;-21.974;-46.800;2023-05-07T09:28:43;7.43;;;5.50;;
49590;SDS011;35496;-21.974;-46.800;2023-05-07T09:31:10;6.43;;;5.85;;
49590;SDS011;35496;-21.974;-46.800;2023-05-07T09:33:36;6.32;;;5.78;;
49590;SDS011;35496;-21.974;-46.800;2023-05-07T09:36:03;6.20;;;4.47;;
49590;SDS011;35496;-21.974;-46.800;2023-05-07T09:38:30;6.53;;;4.97;;
49590;SDS011;35496;-21.974;-46.800;2023-05-07T09:41:30;6.50;;;4.57;;
49590;SDS011;35496;-21.974;-46.800;2023-05-07T09:43:53;4.45;;;4.05;;
49590;SDS011;35496;-21.974;-46.800;2023-05-07T09:46:19;5.35;;;4.47;;
49590;SDS011;35496;-21.974;-46.800;2023-05-07T09:48:49;5.57;;;3.88;;
49590;SDS011;35496;-21.974;-46.800;2023-05-07T09:51:22;6.90;;;3.60;;
49590;SDS011;35496;-21.974;-46.800;2023-05-07T09:53:52;4.78;;;4.30;;
49590;SDS011;35496;-21.974;-46.800;2023-05-07T09:56:18;4.20;;;3.80;;
49590;SDS011;35496;-21.974;-46.800;2023-05-07T09:58:45;5.68;;;4.70;;
49590;SDS011;35496;-21.974;-46.800;2023-05-07T10:01:12;5.05;;;4.57;;
49590;SDS011;35496;-21.974;-46.800;2023-05-07T10:03:41;5.88;;;4.80;;
49590;SDS011;35496;-21.974;-46.800;2023-05-07T10:06:10;5.43;;;4.07;;
49590;SDS011;35496;-21.974;-46.800;2023-05-07T10:08:37;5.68;;;4.82;;
49590;SDS011;35496;-21.974;-46.800;2023-05-07T10:11:04;5.38;;;4.22;;
49590;SDS011;35496;-21.974;-46.800;2023-05-07T10:13:34;4.65;;;4.25;;
49590;SDS011;35496;-21.974;-46.800;2023-05-07T10:16:06;4.75;;;4.25;;
49590;SDS011;35496;-21.974;-46.800;2023-05-07T10:18:33;5.28;;;3.30;;
49590;SDS011;35496;-21.974;-46.800;2023-05-07T10:21:04;4.55;;;4.05;;
49590;SDS011;35496;-21.974;-46.800;2023-05-07T10:23:33;4.90;;;4.30;;
49590;SDS011;35496;-21.974;-46.800;2023-05-07T10:26:03;5.65;;;3.83;;
49590;SDS011;35496;-21.974;-46.800;2023-05-07T10:28:32;6.67;;;4.60;;
49590;SDS011;35496;-21.974;-46.800;2023-05-07T10:33:38;3.25;;;3.03;;
49590;SDS011;35496;-21.974;-46.800;2023-05-07T10:36:05;5.40;;;3.72;;
49590;SDS011;35496;-21.974;-46.800;2023-05-07T10:38:32;4.38;;;3.70;;
49590;SDS011;35496;-21.974;-46.800;2023-05-07T10:40:58;4.95;;;4.13;;
49590;SDS011;35496;-21.974;-46.800;2023-05-07T10:43:24;5.47;;;4.47;;
49590;SDS011;35496;-21.974;-46.800;2023-05-07T10:51:31;3.83;;;3.45;;
49590;SDS011;35496;-21.974;-46.800;2023-05-07T10:56:37;5.75;;;3.10;;
49590;SDS011;35496;-21.974;-46.800;2023-05-07T11:02:02;4.70;;;4.22;;
49590;SDS011;35496;-21.974;-46.800;2023-05-07T11:04:29;4.90;;;3.70;;
49590;SDS011;35496;-21.974;-46.800;2023-05-07T11:13:01;3.17;;;2.95;;
49590;SDS011;35496;-21.974;-46.800;2023-05-07T11:15:06;3.80;;;2.95;;
49590;SDS011;35496;-21.974;-46.800;2023-05-07T11:17:32;4.95;;;3.30;;
49590;SDS011;35496;-21.974;-46.800;2023-05-07T11:20:00;3.22;;;2.90;;
49590;SDS011;35496;-21.974;-46.800;2023-05-07T11:25:01;3.85;;;3.45;;
49590;SDS011;35496;-21.974;-46.800;2023-05-07T11:27:27;3.30;;;3.00;;
49590;SDS011;35496;-21.974;-46.800;2023-05-07T11:29:54;3.53;;;2.67;;
49590;SDS011;35496;-21.974;-46.800;2023-05-07T11:32:23;3.53;;;2.97;;
49590;SDS011;35496;-21.974;-46.800;2023-05-07T11:34:56;5.05;;;3.38;;
49590;SDS011;35496;-21.974;-46.800;2023-05-07T11:37:23;4.43;;;2.95;;
49590;SDS011;35496;-21.974;-46.800;2023-05-07T11:39:50;3.38;;;2.38;;
49590;SDS011;35496;-21.974;-46.800;2023-05-07T11:42:33;2.60;;;2.40;;
49590;SDS011;35496;-21.974;-46.800;2023-05-07T11:44:59;3.55;;;2.50;;
49590;SDS011;35496;-21.974;-46.800;2023-05-07T11:47:26;2.92;;;2.72;;
49590;SDS011;35496;-21.974;-46.800;2023-05-07T11:49:53;2.67;;;2.40;;
49590;SDS011;35496;-21.974;-46.800;2023-05-07T11:52:19;5.45;;;2.83;;
49590;SDS011;35496;-21.974;-46.800;2023-05-07T11:54:49;4.07;;;2.40;;
49590;SDS011;35496;-21.974;-46.800;2023-05-07T11:57:15;2.10;;;1.98;;
49590;SDS011;35496;-21.974;-46.800;2023-05-07T11:59:42;4.35;;;3.05;;
49590;SDS011;35496;-21.974;-46.800;2023-05-07T12:02:14;2.95;;;2.63;;
49590;SDS011;35496;-21.974;-46.800;2023-05-07T12:04:40;2.70;;;2.50;;
49590;SDS011;35496;-21.974;-46.800;2023-05-07T12:07:13;2.92;;;2.38;;
49590;SDS011;35496;-21.974;-46.800;2023-05-07T12:09:40;2.20;;;2.10;;
49590;SDS011;35496;-21.974;-46.800;2023-05-07T12:12:06;2.10;;;1.90;;
49590;SDS011;35496;-21.974;-46.800;2023-05-07T12:14:32;5.47;;;2.13;;
49590;SDS011;35496;-21.974;-46.800;2023-05-07T12:17:01;2.30;;;2.20;;
49590;SDS011;35496;-21.974;-46.800;2023-05-07T12:19:29;2.65;;;2.38;;
49590;SDS011;35496;-21.974;-46.800;2023-05-07T12:21:55;3.15;;;2.30;;
49590;SDS011;35496;-21.974;-46.800;2023-05-07T12:24:21;3.92;;;2.30;;
49590;SDS011;35496;-21.974;-46.800;2023-05-07T12:26:48;2.97;;;2.45;;
49590;SDS011;35496;-21.974;-46.800;2023-05-07T12:29:14;2.38;;;2.10;;
49590;SDS011;35496;-21.974;-46.800;2023-05-07T12:31:41;2.50;;;1.85;;
49590;SDS011;35496;-21.974;-46.800;2023-05-07T12:34:07;2.67;;;1.70;;
49590;SDS011;35496;-21.974;-46.800;2023-05-07T12:36:37;2.35;;;2.17;;
49590;SDS011;35496;-21.974;-46.800;2023-05-07T12:39:06;2.97;;;2.17;;
49590;SDS011;35496;-21.974;-46.800;2023-05-07T12:42:16;3.05;;;2.72;;
49590;SDS011;35496;-21.974;-46.800;2023-05-07T12:46:51;2.63;;;2.42;;
49590;SDS011;35496;-21.974;-46.800;2023-05-07T12:49:17;4.10;;;2.95;;
49590;SDS011;35496;-21.974;-46.800;2023-05-07T12:51:43;2.28;;;2.08;;
49590;SDS011;35496;-21.974;-46.800;2023-05-07T12:54:09;2.17;;;2.08;;
49590;SDS011;35496;-21.974;-46.800;2023-05-07T12:56:36;2.70;;;2.53;;
49590;SDS011;35496;-21.974;-46.800;2023-05-07T12:59:02;3.10;;;2.13;;
49590;SDS011;35496;-21.974;-46.800;2023-05-07T13:01:31;2.55;;;2.13;;
49590;SDS011;35496;-21.974;-46.800;2023-05-07T13:04:03;2.53;;;2.33;;
49590;SDS011;35496;-21.974;-46.800;2023-05-07T13:06:29;2.88;;;2.47;;
49590;SDS011;35496;-21.974;-46.800;2023-05-07T13:08:56;3.47;;;2.75;;
49590;SDS011;35496;-21.974;-46.800;2023-05-07T13:11:22;2.25;;;2.13;;
49590;SDS011;35496;-21.974;-46.800;2023-05-07T13:13:48;5.38;;;3.05;;
49590;SDS011;35496;-21.974;-46.800;2023-05-07T13:16:14;2.13;;;1.95;;
49590;SDS011;35496;-21.974;-46.800;2023-05-07T13:18:40;2.25;;;2.15;;
49590;SDS011;35496;-21.974;-46.800;2023-05-07T13:21:08;3.58;;;2.30;;
49590;SDS011;35496;-21.974;-46.800;2023-05-07T13:23:35;2.50;;;2.30;;
49590;SDS011;35496;-21.974;-46.800;2023-05-07T13:26:03;2.67;;;2.47;;
49590;SDS011;35496;-21.974;-46.800;2023-05-07T13:28:29;2.83;;;2.63;;
49590;SDS011;35496;-21.974;-46.800;2023-05-07T13:30:56;3.22;;;2.30;;
49590;SDS011;35496;-21.974;-46.800;2023-05-07T13:33:22;2.20;;;1.95;;
49590;SDS011;35496;-21.974;-46.800;2023-05-07T13:35:49;5.55;;;3.03;;
49590;SDS011;35496;-21.974;-46.800;2023-05-07T13:38:15;3.63;;;2.33;;
49590;SDS011;35496;-21.974;-46.800;2023-05-07T13:40:41;2.22;;;2.08;;
49590;SDS011;35496;-21.974;-46.800;2023-05-07T13:43:07;3.50;;;2.30;;
49590;SDS011;35496;-21.974;-46.800;2023-05-07T13:45:33;3.88;;;2.72;;
49590;SDS011;35496;-21.974;-46.800;2023-05-07T13:47:59;3.15;;;2.50;;
49590;SDS011;35496;-21.974;-46.800;2023-05-07T13:50:25;3.65;;;2.90;;
49590;SDS011;35496;-21.974;-46.800;2023-05-07T13:52:55;2.92;;;2.50;;
49590;SDS011;35496;-21.974;-46.800;2023-05-07T13:55:21;4.00;;;2.65;;
49590;SDS011;35496;-21.974;-46.800;2023-05-07T13:57:53;2.45;;;2.25;;
49590;SDS011;35496;-21.974;-46.800;2023-05-07T14:00:20;2.80;;;1.50;;
49590;SDS011;35496;-21.974;-46.800;2023-05-07T14:02:46;3.30;;;2.22;;
49590;SDS011;35496;-21.974;-46.800;2023-05-07T14:05:12;2.03;;;1.70;;
49590;SDS011;35496;-21.974;-46.800;2023-05-07T14:07:38;2.53;;;2.33;;
49590;SDS011;35496;-21.974;-46.800;2023-05-07T14:10:05;2.55;;;2.35;;
49590;SDS011;35496;-21.974;-46.800;2023-05-07T14:12:32;2.28;;;1.95;;
49590;SDS011;35496;-21.974;-46.800;2023-05-07T14:14:58;2.95;;;2.30;;
49590;SDS011;35496;-21.974;-46.800;2023-05-07T14:17:24;2.67;;;2.10;;
49590;SDS011;35496;-21.974;-46.800;2023-05-07T14:19:53;4.05;;;2.00;;
49590;SDS011;35496;-21.974;-46.800;2023-05-07T14:22:22;5.07;;;2.90;;
49590;SDS011;35496;-21.974;-46.800;2023-05-07T14:24:49;3.22;;;2.22;;
49590;SDS011;35496;-21.974;-46.800;2023-05-07T14:27:15;2.20;;;2.10;;
49590;SDS011;35496;-21.974;-46.800;2023-05-07T14:29:41;2.35;;;2.00;;